sensor_id;sensor_type;location;lat;lon;timestamp;pressure;altitude;pressure_sealevel;temperature;humidity
27014;BME280;14556;52.222;4.510;2023-05-25T00:00:09;101887.09;;;8.76;100.00
27014;BME280;14556;52.222;4.510;2023-05-25T00:02:39;101898.94;;;8.74;100.00
27014;BME280;14556;52.222;4.510;2023-05-25T00:05:07;101895.59;;;8.72;100.00
27014;BME280;14556;52.222;4.510;2023-05-25T00:07:34;101896.69;;;8.61;100.00
27014;BME280;14556;52.222;4.510;2023-05-25T00:10:00;101905.19;;;8.56;100.00
27014;BME280;14556;52.222;4.510;2023-05-25T00:12:27;101897.59;;;8.51;100.00
27014;BME280;14556;52.222;4.510;2023-05-25T00:14:53;101899.97;;;8.54;100.00
27014;BME280;14556;52.222;4.510;2023-05-25T00:17:20;101899.97;;;8.54;100.00
27014;BME280;14556;52.222;4.510;2023-05-25T00:19:47;101895.78;;;8.52;100.00
27014;BME280;14556;52.222;4.510;2023-05-25T00:22:14;101892.78;;;8.55;100.00
27014;BME280;14556;52.222;4.510;2023-05-25T00:24:40;101899.38;;;8.61;100.00
27014;BME280;14556;52.222;4.510;2023-05-25T00:27:07;101899.84;;;8.56;100.00
27014;BME280;14556;52.222;4.510;2023-05-25T00:29:36;101893.44;;;8.49;100.00
27014;BME280;14556;52.222;4.510;2023-05-25T00:32:03;101890.78;;;8.49;100.00
27014;BME280;14556;52.222;4.510;2023-05-25T00:34:29;101891.09;;;8.45;100.00
27014;BME280;14556;52.222;4.510;2023-05-25T00:36:56;101904.06;;;8.40;100.00
27014;BME280;14556;52.222;4.510;2023-05-25T00:39:23;101906.00;;;8.30;100.00
27014;BME280;14556;52.222;4.510;2023-05-25T00:41:49;101907.66;;;8.31;100.00
27014;BME280;14556;52.222;4.510;2023-05-25T00:44:16;101906.53;;;8.33;100.00
27014;BME280;14556;52.222;4.510;2023-05-25T00:46:48;101915.66;;;8.31;100.00
27014;BME280;14556;52.222;4.510;2023-05-25T00:49:17;101907.50;;;8.32;100.00
27014;BME280;14556;52.222;4.510;2023-05-25T00:51:45;101919.22;;;8.40;100.00
27014;BME280;14556;52.222;4.510;2023-05-25T00:54:15;101912.00;;;8.32;100.00
27014;BME280;14556;52.222;4.510;2023-05-25T00:56:56;101910.81;;;8.26;100.00
27014;BME280;14556;52.222;4.510;2023-05-25T00:59:30;101913.47;;;8.26;100.00
27014;BME280;14556;52.222;4.510;2023-05-25T01:02:09;101920.31;;;8.29;100.00
27014;BME280;14556;52.222;4.510;2023-05-25T01:04:44;101914.28;;;8.27;100.00
27014;BME280;14556;52.222;4.510;2023-05-25T01:07:18;101918.28;;;8.22;100.00
27014;BME280;14556;52.222;4.510;2023-05-25T01:09:49;101917.28;;;8.23;100.00
27014;BME280;14556;52.222;4.510;2023-05-25T01:12:18;101913.13;;;8.21;100.00
27014;BME280;14556;52.222;4.510;2023-05-25T01:14:46;101922.09;;;8.20;100.00
27014;BME280;14556;52.222;4.510;2023-05-25T01:17:14;101923.69;;;8.13;100.00
27014;BME280;14556;52.222;4.510;2023-05-25T01:19:41;101929.19;;;8.11;100.00
27014;BME280;14556;52.222;4.510;2023-05-25T01:22:46;101924.66;;;8.03;100.00
27014;BME280;14556;52.222;4.510;2023-05-25T01:25:32;101921.81;;;8.05;100.00
27014;BME280;14556;52.222;4.510;2023-05-25T01:30:31;101921.13;;;8.03;100.00
27014;BME280;14556;52.222;4.510;2023-05-25T01:32:58;101920.66;;;8.07;100.00
27014;BME280;14556;52.222;4.510;2023-05-25T01:35:26;101922.19;;;8.10;100.00
27014;BME280;14556;52.222;4.510;2023-05-25T01:37:53;101920.97;;;8.04;100.00
27014;BME280;14556;52.222;4.510;2023-05-25T01:40:20;101924.31;;;8.06;100.00
27014;BME280;14556;52.222;4.510;2023-05-25T01:42:46;101922.72;;;8.14;100.00
27014;BME280;14556;52.222;4.510;2023-05-25T01:45:13;101928.53;;;8.09;100.00
27014;BME280;14556;52.222;4.510;2023-05-25T01:47:44;101935.03;;;8.15;100.00
27014;BME280;14556;52.222;4.510;2023-05-25T01:50:25;101933.22;;;8.15;100.00
27014;BME280;14556;52.222;4.510;2023-05-25T01:53:02;101927.84;;;8.07;100.00
27014;BME280;14556;52.222;4.510;2023-05-25T01:55:33;101940.00;;;8.09;100.00
27014;BME280;14556;52.222;4.510;2023-05-25T01:58:04;101939.69;;;8.13;100.00
27014;BME280;14556;52.222;4.510;2023-05-25T02:00:31;101935.75;;;7.98;100.00
27014;BME280;14556;52.222;4.510;2023-05-25T02:02:59;101935.69;;;7.90;100.00
27014;BME280;14556;52.222;4.510;2023-05-25T02:05:28;101924.28;;;7.80;100.00
27014;BME280;14556;52.222;4.510;2023-05-25T02:07:55;101928.63;;;7.81;100.00
27014;BME280;14556;52.222;4.510;2023-05-25T02:10:21;101925.97;;;7.81;100.00
27014;BME280;14556;52.222;4.510;2023-05-25T02:12:48;101933.03;;;7.90;100.00
27014;BME280;14556;52.222;4.510;2023-05-25T02:15:15;101935.84;;;7.89;100.00
27014;BME280;14556;52.222;4.510;2023-05-25T02:17:41;101944.16;;;7.85;100.00
27014;BME280;14556;52.222;4.510;2023-05-25T02:20:10;101939.72;;;7.76;100.00
27014;BME280;14556;52.222;4.510;2023-05-25T02:22:37;101949.41;;;7.77;100.00
27014;BME280;14556;52.222;4.510;2023-05-25T02:25:03;101950.38;;;7.76;100.00
27014;BME280;14556;52.222;4.510;2023-05-25T02:27:31;101952.34;;;7.74;100.00
27014;BME280;14556;52.222;4.510;2023-05-25T02:29:57;101960.22;;;7.76;100.00
27014;BME280;14556;52.222;4.510;2023-05-25T02:32:25;101955.47;;;7.69;100.00
27014;BME280;14556;52.222;4.510;2023-05-25T02:34:54;101950.63;;;7.65;100.00
27014;BME280;14556;52.222;4.510;2023-05-25T02:37:21;101948.66;;;7.67;100.00
27014;BME280;14556;52.222;4.510;2023-05-25T02:39:47;101954.78;;;7.67;100.00
27014;BME280;14556;52.222;4.510;2023-05-25T02:42:14;101945.13;;;7.66;100.00
27014;BME280;14556;52.222;4.510;2023-05-25T02:44:41;101942.19;;;7.51;100.00
27014;BME280;14556;52.222;4.510;2023-05-25T02:47:17;101954.88;;;7.57;100.00
27014;BME280;14556;52.222;4.510;2023-05-25T02:49:44;101949.47;;;7.49;100.00
27014;BME280;14556;52.222;4.510;2023-05-25T02:52:10;101957.47;;;7.49;100.00
27014;BME280;14556;52.222;4.510;2023-05-25T02:54:37;101941.53;;;7.39;100.00
27014;BME280;14556;52.222;4.510;2023-05-25T02:57:04;101957.06;;;7.44;100.00
27014;BME280;14556;52.222;4.510;2023-05-25T02:59:30;101949.41;;;7.41;100.00
27014;BME280;14556;52.222;4.510;2023-05-25T03:01:57;101962.94;;;7.47;100.00
27014;BME280;14556;52.222;4.510;2023-05-25T03:04:24;101954.19;;;7.55;100.00
27014;BME280;14556;52.222;4.510;2023-05-25T03:06:51;101964.41;;;7.60;100.00
27014;BME280;14556;52.222;4.510;2023-05-25T03:09:18;101957.00;;;7.54;100.00
27014;BME280;14556;52.222;4.510;2023-05-25T03:11:44;101967.09;;;7.50;100.00
27014;BME280;14556;52.222;4.510;2023-05-25T03:14:11;101961.09;;;7.48;100.00
27014;BME280;14556;52.222;4.510;2023-05-25T03:16:38;101956.38;;;7.42;100.00
27014;BME280;14556;52.222;4.510;2023-05-25T03:19:05;101957.75;;;7.46;100.00
27014;BME280;14556;52.222;4.510;2023-05-25T03:21:32;101964.13;;;7.53;100.00
27014;BME280;14556;52.222;4.510;2023-05-25T03:23:59;101959.34;;;7.38;100.00
27014;BME280;14556;52.222;4.510;2023-05-25T03:26:25;101960.09;;;7.31;100.00
27014;BME280;14556;52.222;4.510;2023-05-25T03:28:52;101964.53;;;7.40;100.00
27014;BME280;14556;52.222;4.510;2023-05-25T03:31:18;101965.06;;;7.44;100.00
27014;BME280;14556;52.222;4.510;2023-05-25T03:33:45;101965.59;;;7.47;100.00
27014;BME280;14556;52.222;4.510;2023-05-25T03:36:12;101965.06;;;7.44;100.00
27014;BME280;14556;52.222;4.510;2023-05-25T03:38:38;101973.84;;;7.44;100.00
27014;BME280;14556;52.222;4.510;2023-05-25T03:41:05;101968.59;;;7.34;100.00
27014;BME280;14556;52.222;4.510;2023-05-25T03:43:32;101956.59;;;7.30;100.00
27014;BME280;14556;52.222;4.510;2023-05-25T03:45:59;101971.66;;;7.40;100.00
27014;BME280;14556;52.222;4.510;2023-05-25T03:48:25;101968.66;;;7.24;100.00
27014;BME280;14556;52.222;4.510;2023-05-25T03:50:52;101962.59;;;7.32;100.00
27014;BME280;14556;52.222;4.510;2023-05-25T03:53:19;101962.34;;;7.25;100.00
27014;BME280;14556;52.222;4.510;2023-05-25T03:55:45;101974.53;;;7.28;100.00
27014;BME280;14556;52.222;4.510;2023-05-25T03:58:12;101986.00;;;7.29;100.00
27014;BME280;14556;52.222;4.510;2023-05-25T04:00:38;101966.94;;;7.05;100.00
27014;BME280;14556;52.222;4.510;2023-05-25T04:03:05;101987.22;;;7.16;100.00
27014;BME280;14556;52.222;4.510;2023-05-25T04:05:32;101984.09;;;7.21;100.00
27014;BME280;14556;52.222;4.510;2023-05-25T04:07:58;101986.84;;;7.29;100.00
27014;BME280;14556;52.222;4.510;2023-05-25T04:10:25;101974.81;;;7.25;100.00
27014;BME280;14556;52.222;4.510;2023-05-25T04:12:51;101985.03;;;7.30;100.00
27014;BME280;14556;52.222;4.510;2023-05-25T04:15:21;101981.91;;;7.34;100.00
27014;BME280;14556;52.222;4.510;2023-05-25T04:17:48;101980.25;;;7.33;100.00
27014;BME280;14556;52.222;4.510;2023-05-25T04:20:14;101992.25;;;7.37;100.00
27014;BME280;14556;52.222;4.510;2023-05-25T04:22:41;101994.34;;;7.44;100.00
27014;BME280;14556;52.222;4.510;2023-05-25T04:25:09;101984.44;;;7.36;100.00
27014;BME280;14556;52.222;4.510;2023-05-25T04:27:35;101983.69;;;7.44;100.00
27014;BME280;14556;52.222;4.510;2023-05-25T04:30:03;101982.25;;;7.49;100.00
27014;BME280;14556;52.222;4.510;2023-05-25T04:32:29;101988.78;;;7.55;100.00
27014;BME280;14556;52.222;4.510;2023-05-25T04:34:57;101995.81;;;7.56;100.00
27014;BME280;14556;52.222;4.510;2023-05-25T04:37:24;102005.31;;;7.59;100.00
27014;BME280;14556;52.222;4.510;2023-05-25T04:39:55;102012.41;;;7.68;100.00
27014;BME280;14556;52.222;4.510;2023-05-25T04:42:24;101998.09;;;7.69;100.00
27014;BME280;14556;52.222;4.510;2023-05-25T04:44:51;102010.44;;;7.70;100.00
27014;BME280;14556;52.222;4.510;2023-05-25T04:47:24;102014.06;;;7.69;100.00
27014;BME280;14556;52.222;4.510;2023-05-25T04:49:52;102009.97;;;7.75;100.00
27014;BME280;14556;52.222;4.510;2023-05-25T04:52:18;102000.06;;;7.67;100.00
27014;BME280;14556;52.222;4.510;2023-05-25T04:54:45;102012.56;;;7.85;100.00
27014;BME280;14556;52.222;4.510;2023-05-25T04:57:12;102020.63;;;7.93;100.00
27014;BME280;14556;52.222;4.510;2023-05-25T04:59:38;102027.03;;;8.01;100.00
27014;BME280;14556;52.222;4.510;2023-05-25T05:02:04;102022.94;;;8.06;100.00
27014;BME280;14556;52.222;4.510;2023-05-25T05:04:31;102028.16;;;8.16;100.00
27014;BME280;14556;52.222;4.510;2023-05-25T05:06:57;102035.25;;;8.26;100.00
27014;BME280;14556;52.222;4.510;2023-05-25T05:09:25;102032.13;;;8.30;100.00
27014;BME280;14556;52.222;4.510;2023-05-25T05:11:51;102028.00;;;8.36;100.00
27014;BME280;14556;52.222;4.510;2023-05-25T05:14:18;102019.69;;;8.39;100.00
27014;BME280;14556;52.222;4.510;2023-05-25T05:16:44;102036.16;;;8.53;100.00
27014;BME280;14556;52.222;4.510;2023-05-25T05:19:13;102030.06;;;8.61;100.00
27014;BME280;14556;52.222;4.510;2023-05-25T05:21:39;102034.63;;;8.68;100.00
27014;BME280;14556;52.222;4.510;2023-05-25T05:24:06;102030.63;;;8.73;100.00
27014;BME280;14556;52.222;4.510;2023-05-25T05:26:32;102027.19;;;8.80;100.00
27014;BME280;14556;52.222;4.510;2023-05-25T05:29:19;102035.59;;;8.94;100.00
27014;BME280;14556;52.222;4.510;2023-05-25T05:31:45;102040.97;;;9.02;100.00
27014;BME280;14556;52.222;4.510;2023-05-25T05:34:12;102038.50;;;9.09;100.00
27014;BME280;14556;52.222;4.510;2023-05-25T05:36:38;102046.06;;;9.14;100.00
27014;BME280;14556;52.222;4.510;2023-05-25T05:39:22;102048.06;;;9.20;100.00
27014;BME280;14556;52.222;4.510;2023-05-25T05:41:49;102052.47;;;9.29;100.00
27014;BME280;14556;52.222;4.510;2023-05-25T05:44:16;102047.47;;;9.35;100.00
27014;BME280;14556;52.222;4.510;2023-05-25T05:46:42;102048.03;;;9.47;100.00
27014;BME280;14556;52.222;4.510;2023-05-25T05:49:09;102049.38;;;9.51;100.00
27014;BME280;14556;52.222;4.510;2023-05-25T05:51:35;102041.56;;;9.58;100.00
27014;BME280;14556;52.222;4.510;2023-05-25T05:54:02;102044.06;;;9.67;100.00
27014;BME280;14556;52.222;4.510;2023-05-25T05:56:29;102055.28;;;9.79;100.00
27014;BME280;14556;52.222;4.510;2023-05-25T05:58:56;102061.84;;;9.94;100.00
27014;BME280;14556;52.222;4.510;2023-05-25T06:01:23;102047.31;;;9.96;100.00
27014;BME280;14556;52.222;4.510;2023-05-25T06:03:50;102056.69;;;10.17;100.00
27014;BME280;14556;52.222;4.510;2023-05-25T06:06:19;102059.38;;;10.25;100.00
27014;BME280;14556;52.222;4.510;2023-05-25T06:08:46;102052.69;;;10.30;100.00
27014;BME280;14556;52.222;4.510;2023-05-25T06:11:13;102065.38;;;10.44;100.00
27014;BME280;14556;52.222;4.510;2023-05-25T06:13:40;102036.47;;;10.39;100.00
27014;BME280;14556;52.222;4.510;2023-05-25T06:16:06;102050.69;;;10.57;100.00
27014;BME280;14556;52.222;4.510;2023-05-25T06:18:33;102051.34;;;10.67;100.00
27014;BME280;14556;52.222;4.510;2023-05-25T06:21:00;102057.72;;;10.74;100.00
27014;BME280;14556;52.222;4.510;2023-05-25T06:23:27;102063.72;;;10.85;100.00
27014;BME280;14556;52.222;4.510;2023-05-25T06:25:53;102059.19;;;10.94;100.00
27014;BME280;14556;52.222;4.510;2023-05-25T06:28:20;102053.63;;;11.04;100.00
27014;BME280;14556;52.222;4.510;2023-05-25T06:30:47;102061.97;;;11.17;100.00
27014;BME280;14556;52.222;4.510;2023-05-25T06:33:13;102051.88;;;11.28;100.00
27014;BME280;14556;52.222;4.510;2023-05-25T06:35:40;102061.03;;;11.42;100.00
27014;BME280;14556;52.222;4.510;2023-05-25T06:38:07;102060.03;;;11.43;100.00
27014;BME280;14556;52.222;4.510;2023-05-25T06:40:33;102048.31;;;11.35;100.00
27014;BME280;14556;52.222;4.510;2023-05-25T06:43:00;102057.03;;;11.38;100.00
27014;BME280;14556;52.222;4.510;2023-05-25T06:45:27;102070.56;;;11.44;100.00
27014;BME280;14556;52.222;4.510;2023-05-25T06:47:53;102068.50;;;11.55;100.00
27014;BME280;14556;52.222;4.510;2023-05-25T06:50:20;102057.25;;;11.59;100.00
27014;BME280;14556;52.222;4.510;2023-05-25T06:52:49;102069.91;;;11.74;100.00
27014;BME280;14556;52.222;4.510;2023-05-25T06:55:18;102048.69;;;11.64;100.00
27014;BME280;14556;52.222;4.510;2023-05-25T06:57:44;102067.06;;;11.76;100.00
27014;BME280;14556;52.222;4.510;2023-05-25T07:00:11;102074.03;;;11.85;100.00
27014;BME280;14556;52.222;4.510;2023-05-25T07:02:40;102074.53;;;11.89;100.00
27014;BME280;14556;52.222;4.510;2023-05-25T07:05:07;102076.25;;;12.05;100.00
27014;BME280;14556;52.222;4.510;2023-05-25T07:07:34;102068.56;;;12.02;100.00
27014;BME280;14556;52.222;4.510;2023-05-25T07:10:02;102069.50;;;12.17;100.00
27014;BME280;14556;52.222;4.510;2023-05-25T07:12:29;102066.38;;;12.05;100.00
27014;BME280;14556;52.222;4.510;2023-05-25T07:14:57;102083.66;;;12.03;100.00
27014;BME280;14556;52.222;4.510;2023-05-25T07:17:23;102084.88;;;11.92;100.00
27014;BME280;14556;52.222;4.510;2023-05-25T07:19:50;102068.19;;;11.81;100.00
27014;BME280;14556;52.222;4.510;2023-05-25T07:22:17;102084.63;;;11.78;100.00
27014;BME280;14556;52.222;4.510;2023-05-25T07:24:45;102095.88;;;11.73;100.00
27014;BME280;14556;52.222;4.510;2023-05-25T07:27:12;102089.91;;;11.63;100.00
27014;BME280;14556;52.222;4.510;2023-05-25T07:29:39;102088.44;;;11.84;100.00
27014;BME280;14556;52.222;4.510;2023-05-25T07:32:06;102090.50;;;12.05;100.00
27014;BME280;14556;52.222;4.510;2023-05-25T07:34:33;102093.69;;;12.09;100.00
27014;BME280;14556;52.222;4.510;2023-05-25T07:37:00;102107.09;;;12.09;100.00
27014;BME280;14556;52.222;4.510;2023-05-25T07:39:27;102102.81;;;12.23;100.00
27014;BME280;14556;52.222;4.510;2023-05-25T07:41:53;102104.19;;;12.19;100.00
27014;BME280;14556;52.222;4.510;2023-05-25T07:44:20;102105.75;;;12.13;100.00
27014;BME280;14556;52.222;4.510;2023-05-25T07:46:46;102105.38;;;12.16;100.00
27014;BME280;14556;52.222;4.510;2023-05-25T07:49:13;102119.63;;;12.40;100.00
27014;BME280;14556;52.222;4.510;2023-05-25T07:51:44;102119.75;;;12.47;100.00
27014;BME280;14556;52.222;4.510;2023-05-25T07:54:11;102118.63;;;12.41;100.00
27014;BME280;14556;52.222;4.510;2023-05-25T07:56:37;102117.19;;;12.30;100.00
27014;BME280;14556;52.222;4.510;2023-05-25T07:59:05;102107.03;;;12.17;100.00
27014;BME280;14556;52.222;4.510;2023-05-25T08:01:32;102106.78;;;12.04;100.00
27014;BME280;14556;52.222;4.510;2023-05-25T08:03:58;102111.97;;;12.05;100.00
27014;BME280;14556;52.222;4.510;2023-05-25T08:06:25;102108.78;;;12.02;100.00
27014;BME280;14556;52.222;4.510;2023-05-25T08:08:52;102131.91;;;12.11;100.00
27014;BME280;14556;52.222;4.510;2023-05-25T08:11:22;102132.50;;;12.21;100.00
27014;BME280;14556;52.222;4.510;2023-05-25T08:13:50;102139.31;;;12.32;100.00
27014;BME280;14556;52.222;4.510;2023-05-25T08:16:17;102136.38;;;12.42;100.00
27014;BME280;14556;52.222;4.510;2023-05-25T08:18:44;102117.81;;;12.56;100.00
27014;BME280;14556;52.222;4.510;2023-05-25T08:21:12;102113.78;;;12.60;100.00
27014;BME280;14556;52.222;4.510;2023-05-25T08:23:40;102133.53;;;12.67;100.00
27014;BME280;14556;52.222;4.510;2023-05-25T08:26:10;102141.16;;;12.55;100.00
27014;BME280;14556;52.222;4.510;2023-05-25T08:28:57;102137.81;;;12.53;100.00
27014;BME280;14556;52.222;4.510;2023-05-25T08:31:23;102142.91;;;12.48;100.00
27014;BME280;14556;52.222;4.510;2023-05-25T08:33:50;102143.06;;;12.47;100.00
27014;BME280;14556;52.222;4.510;2023-05-25T08:36:17;102142.91;;;12.48;100.00
27014;BME280;14556;52.222;4.510;2023-05-25T08:38:43;102140.72;;;12.43;100.00
27014;BME280;14556;52.222;4.510;2023-05-25T08:41:10;102132.94;;;12.33;100.00
27014;BME280;14556;52.222;4.510;2023-05-25T08:43:37;102123.72;;;12.28;100.00
27014;BME280;14556;52.222;4.510;2023-05-25T08:46:05;102149.63;;;12.20;100.00
27014;BME280;14556;52.222;4.510;2023-05-25T08:48:32;102146.16;;;12.12;100.00
27014;BME280;14556;52.222;4.510;2023-05-25T08:51:09;102147.34;;;12.09;100.00
27014;BME280;14556;52.222;4.510;2023-05-25T08:53:38;102141.28;;;12.15;100.00
27014;BME280;14556;52.222;4.510;2023-05-25T08:56:19;102151.41;;;12.28;100.00
27014;BME280;14556;52.222;4.510;2023-05-25T08:59:06;102147.00;;;12.36;100.00
27014;BME280;14556;52.222;4.510;2023-05-25T09:01:38;102149.75;;;12.51;100.00
27014;BME280;14556;52.222;4.510;2023-05-25T09:04:10;102135.53;;;12.42;100.00
27014;BME280;14556;52.222;4.510;2023-05-25T09:06:39;102130.66;;;12.45;100.00
27014;BME280;14556;52.222;4.510;2023-05-25T09:09:07;102142.34;;;12.53;100.00
27014;BME280;14556;52.222;4.510;2023-05-25T09:11:34;102143.66;;;12.57;100.00
27014;BME280;14556;52.222;4.510;2023-05-25T09:14:06;102145.81;;;12.62;100.00
27014;BME280;14556;52.222;4.510;2023-05-25T09:16:35;102140.63;;;12.60;100.00
27014;BME280;14556;52.222;4.510;2023-05-25T09:19:02;102133.88;;;12.64;100.00
27014;BME280;14556;52.222;4.510;2023-05-25T09:21:29;102140.41;;;12.47;100.00
27014;BME280;14556;52.222;4.510;2023-05-25T09:23:57;102149.56;;;12.52;100.00
27014;BME280;14556;52.222;4.510;2023-05-25T09:26:24;102153.84;;;12.62;100.00
27014;BME280;14556;52.222;4.510;2023-05-25T09:28:51;102141.31;;;12.54;100.00
27014;BME280;14556;52.222;4.510;2023-05-25T09:31:18;102138.53;;;12.47;100.00
27014;BME280;14556;52.222;4.510;2023-05-25T09:33:44;102158.44;;;12.53;100.00
27014;BME280;14556;52.222;4.510;2023-05-25T09:36:11;102160.59;;;12.34;100.00
27014;BME280;14556;52.222;4.510;2023-05-25T09:38:40;102164.34;;;12.25;100.00
27014;BME280;14556;52.222;4.510;2023-05-25T09:41:08;102159.41;;;12.13;100.00
27014;BME280;14556;52.222;4.510;2023-05-25T09:43:34;102169.22;;;12.21;100.00
27014;BME280;14556;52.222;4.510;2023-05-25T09:46:14;102142.28;;;12.14;100.00
27014;BME280;14556;52.222;4.510;2023-05-25T09:48:41;102158.66;;;12.19;100.00
27014;BME280;14556;52.222;4.510;2023-05-25T09:51:08;102165.72;;;12.20;100.00
27014;BME280;14556;52.222;4.510;2023-05-25T09:53:34;102168.91;;;12.16;100.00
27014;BME280;14556;52.222;4.510;2023-05-25T09:56:01;102170.72;;;12.24;100.00
27014;BME280;14556;52.222;4.510;2023-05-25T09:58:29;102183.00;;;12.18;100.00
27014;BME280;14556;52.222;4.510;2023-05-25T10:00:56;102161.66;;;12.25;100.00
27014;BME280;14556;52.222;4.510;2023-05-25T10:03:23;102152.94;;;12.23;100.00
27014;BME280;14556;52.222;4.510;2023-05-25T10:05:52;102178.78;;;12.47;100.00
27014;BME280;14556;52.222;4.510;2023-05-25T10:08:19;102181.25;;;12.57;100.00
27014;BME280;14556;52.222;4.510;2023-05-25T10:10:47;102176.69;;;12.57;100.00
27014;BME280;14556;52.222;4.510;2023-05-25T10:13:19;102179.44;;;12.73;100.00
27014;BME280;14556;52.222;4.510;2023-05-25T10:15:47;102164.44;;;12.78;100.00
27014;BME280;14556;52.222;4.510;2023-05-25T10:18:23;102169.03;;;12.93;100.00
27014;BME280;14556;52.222;4.510;2023-05-25T10:20:58;102167.75;;;13.04;100.00
27014;BME280;14556;52.222;4.510;2023-05-25T10:23:30;102154.41;;;12.96;100.00
27014;BME280;14556;52.222;4.510;2023-05-25T10:26:01;102172.38;;;12.95;100.00
27014;BME280;14556;52.222;4.510;2023-05-25T10:28:29;102186.34;;;12.90;100.00
27014;BME280;14556;52.222;4.510;2023-05-25T10:30:59;102161.78;;;12.55;100.00
27014;BME280;14556;52.222;4.510;2023-05-25T10:33:27;102177.75;;;12.72;100.00
27014;BME280;14556;52.222;4.510;2023-05-25T10:36:00;102168.59;;;12.66;100.00
27014;BME280;14556;52.222;4.510;2023-05-25T10:38:34;102154.44;;;12.49;100.00
27014;BME280;14556;52.222;4.510;2023-05-25T10:41:02;102160.59;;;12.57;100.00
27014;BME280;14556;52.222;4.510;2023-05-25T10:43:29;102181.25;;;12.57;100.00
27014;BME280;14556;52.222;4.510;2023-05-25T10:45:56;102167.22;;;12.47;100.00
27014;BME280;14556;52.222;4.510;2023-05-25T10:48:24;102177.91;;;12.55;100.00
27014;BME280;14556;52.222;4.510;2023-05-25T10:51:00;102184.63;;;12.51;100.00
27014;BME280;14556;52.222;4.510;2023-05-25T10:53:26;102190.34;;;12.48;100.00
27014;BME280;14556;52.222;4.510;2023-05-25T10:58:21;102185.06;;;12.39;100.00
27014;BME280;14556;52.222;4.510;2023-05-25T11:01:02;102188.13;;;12.28;100.00
27014;BME280;14556;52.222;4.510;2023-05-25T11:06:14;102169.47;;;12.03;100.00
27014;BME280;14556;52.222;4.510;2023-05-25T11:09:07;102197.25;;;12.18;100.00
27014;BME280;14556;52.222;4.510;2023-05-25T11:17:17;102195.56;;;12.17;100.00
27014;BME280;14556;52.222;4.510;2023-05-25T11:19:47;102198.41;;;12.16;100.00
27014;BME280;14556;52.222;4.510;2023-05-25T11:24:49;102195.19;;;12.29;100.00
27014;BME280;14556;52.222;4.510;2023-05-25T11:27:25;102187.78;;;12.31;100.00
27014;BME280;14556;52.222;4.510;2023-05-25T11:29:53;102179.28;;;12.19;100.00
27014;BME280;14556;52.222;4.510;2023-05-25T11:32:20;102183.25;;;12.31;100.00
27014;BME280;14556;52.222;4.510;2023-05-25T11:34:46;102170.50;;;12.33;100.00
27014;BME280;14556;52.222;4.510;2023-05-25T11:37:17;102167.41;;;12.45;100.00
27014;BME280;14556;52.222;4.510;2023-05-25T11:39:51;102173.19;;;12.57;100.00
27014;BME280;14556;52.222;4.510;2023-05-25T11:42:19;102168.94;;;12.39;100.00
27014;BME280;14556;52.222;4.510;2023-05-25T11:44:46;102151.34;;;12.37;100.00
27014;BME280;14556;52.222;4.510;2023-05-25T11:47:13;102172.16;;;12.58;100.00
27014;BME280;14556;52.222;4.510;2023-05-25T11:49:45;102167.47;;;12.60;100.00
27014;BME280;14556;52.222;4.510;2023-05-25T11:52:13;102170.69;;;12.55;100.00
27014;BME280;14556;52.222;4.510;2023-05-25T11:54:41;102170.81;;;12.62;100.00
27014;BME280;14556;52.222;4.510;2023-05-25T11:59:46;102153.88;;;12.77;100.00
27014;BME280;14556;52.222;4.510;2023-05-25T12:02:14;102154.13;;;12.90;100.00
27014;BME280;14556;52.222;4.510;2023-05-25T12:04:52;102155.63;;;13.08;100.00
27014;BME280;14556;52.222;4.510;2023-05-25T12:07:20;102150.25;;;13.08;100.00
27014;BME280;14556;52.222;4.510;2023-05-25T12:09:47;102153.06;;;13.30;100.00
27014;BME280;14556;52.222;4.510;2023-05-25T12:12:13;102139.72;;;13.37;100.00
27014;BME280;14556;52.222;4.510;2023-05-25T12:14:49;102151.47;;;13.51;100.00
27014;BME280;14556;52.222;4.510;2023-05-25T12:17:18;102134.16;;;13.38;100.00
27014;BME280;14556;52.222;4.510;2023-05-25T12:19:46;102148.63;;;13.37;100.00
27014;BME280;14556;52.222;4.510;2023-05-25T12:22:14;102149.81;;;13.35;100.00
27014;BME280;14556;52.222;4.510;2023-05-25T12:24:41;102151.97;;;13.39;100.00
27014;BME280;14556;52.222;4.510;2023-05-25T12:27:18;102154.38;;;13.34;100.00
27014;BME280;14556;52.222;4.510;2023-05-25T12:29:46;102155.38;;;13.18;100.00
27014;BME280;14556;52.222;4.510;2023-05-25T12:32:14;102151.66;;;13.04;100.00
27014;BME280;14556;52.222;4.510;2023-05-25T12:34:41;102131.78;;;12.75;100.00
27014;BME280;14556;52.222;4.510;2023-05-25T12:37:19;102132.22;;;12.78;100.00
27014;BME280;14556;52.222;4.510;2023-05-25T12:39:46;102132.41;;;12.77;100.00
27014;BME280;14556;52.222;4.510;2023-05-25T12:42:16;102138.66;;;12.92;100.00
27014;BME280;14556;52.222;4.510;2023-05-25T12:44:44;102127.19;;;12.99;100.00
27014;BME280;14556;52.222;4.510;2023-05-25T12:49:43;102122.19;;;13.26;100.00
27014;BME280;14556;52.222;4.510;2023-05-25T12:52:11;102134.34;;;13.67;100.00
27014;BME280;14556;52.222;4.510;2023-05-25T12:54:56;102140.03;;;13.94;100.00
27014;BME280;14556;52.222;4.510;2023-05-25T12:57:33;102120.88;;;13.82;100.00
27014;BME280;14556;52.222;4.510;2023-05-25T13:00:00;102118.22;;;13.67;100.00
27014;BME280;14556;52.222;4.510;2023-05-25T13:02:26;102121.75;;;13.68;100.00
27014;BME280;14556;52.222;4.510;2023-05-25T13:04:53;102128.78;;;13.69;100.00
27014;BME280;14556;52.222;4.510;2023-05-25T13:07:19;102115.66;;;13.59;100.00
27014;BME280;14556;52.222;4.510;2023-05-25T13:09:47;102130.56;;;13.61;100.00
27014;BME280;14556;52.222;4.510;2023-05-25T13:12:14;102120.84;;;13.60;100.00